createdAt,value
2018-08-10T00:01:33.750Z,68.61
2018-08-10T00:04:01.425Z,68.44
2018-08-10T00:06:29.074Z,68.39
2018-08-10T00:08:56.849Z,68.93
2018-08-10T00:11:24.521Z,68.82
2018-08-10T00:13:52.195Z,69.21
2018-08-10T00:16:19.945Z,69.31
2018-08-10T00:18:47.993Z,69.24
2018-08-10T00:21:15.676Z,69.81
2018-08-10T00:23:43.408Z,70.04
2018-08-10T00:26:11.182Z,71.22
2018-08-10T00:28:38.990Z,70.94
2018-08-10T00:31:06.716Z,70.34
2018-08-10T00:33:34.434Z,70.87
2018-08-10T00:36:02.206Z,70.54
2018-08-10T00:38:29.878Z,70.77
2018-08-10T00:40:57.606Z,70.33
2018-08-10T00:43:25.345Z,70.48
2018-08-10T00:45:53.057Z,70.83
2018-08-10T00:48:20.820Z,70.97
2018-08-10T00:50:48.506Z,71.43
2018-08-10T00:53:16.223Z,71.53
2018-08-10T00:55:43.910Z,70.94
2018-08-10T00:58:11.597Z,71.39
2018-08-10T01:00:39.346Z,71.79
2018-08-10T01:03:07.066Z,71.57
2018-08-10T01:05:34.716Z,71.51
2018-08-10T01:08:02.417Z,71.42
2018-08-10T01:10:30.089Z,71.49
2018-08-10T01:12:57.738Z,71.44
2018-08-10T01:15:25.409Z,71.08
2018-08-10T01:17:53.050Z,72.23
2018-08-10T01:20:22.052Z,71.08
2018-08-10T01:22:55.218Z,71.42
2018-08-10T01:25:25.001Z,71.47
2018-08-10T01:27:59.781Z,72.30
2018-08-10T01:30:29.797Z,72.98
2018-08-10T01:32:57.701Z,73.09
2018-08-10T01:35:26.042Z,72.90
2018-08-10T01:37:54.764Z,72.88
2018-08-10T01:40:22.459Z,73.58
2018-08-10T01:42:50.197Z,73.87
2018-08-10T01:45:17.982Z,74.07
2018-08-10T01:47:45.766Z,73.55
2018-08-10T01:50:13.533Z,73.91
2018-08-10T01:52:41.181Z,73.57
2018-08-10T01:55:09.482Z,73.13
2018-08-10T01:57:37.861Z,73.50
2018-08-10T02:00:06.040Z,73.26
2018-08-10T02:02:33.835Z,73.18
2018-08-10T02:05:01.509Z,73.11
2018-08-10T02:07:29.246Z,72.56
2018-08-10T02:09:56.906Z,72.87
2018-08-10T02:12:24.633Z,73.74
2018-08-10T02:14:52.301Z,72.99
2018-08-10T02:17:19.931Z,73.27
2018-08-10T02:19:47.597Z,73.19
2018-08-10T02:22:15.277Z,73.00
2018-08-10T02:24:43.005Z,73.16
2018-08-10T02:27:10.714Z,73.60
2018-08-10T02:29:38.369Z,73.87
2018-08-10T02:32:06.146Z,73.97
2018-08-10T02:34:33.834Z,74.72
2018-08-10T02:37:01.626Z,74.38
2018-08-10T02:39:29.317Z,74.63
2018-08-10T02:41:57.018Z,74.33
2018-08-10T02:44:24.691Z,74.43
2018-08-10T02:46:52.374Z,75.06
2018-08-10T02:49:20.062Z,74.19
2018-08-10T02:51:47.750Z,73.93
2018-08-10T02:54:15.430Z,74.57
2018-08-10T02:56:43.175Z,74.80
2018-08-10T02:59:10.865Z,74.80
2018-08-10T03:01:38.625Z,74.67
2018-08-10T03:04:06.310Z,73.57
2018-08-10T03:06:33.970Z,73.99
2018-08-10T03:09:01.655Z,73.83
2018-08-10T03:11:29.430Z,73.63
2018-08-10T03:13:57.133Z,73.38
2018-08-10T03:16:24.809Z,73.02
2018-08-10T03:18:52.573Z,72.87
2018-08-10T03:21:20.321Z,72.81
2018-08-10T03:23:48.072Z,72.52
2018-08-10T03:26:15.827Z,73.00
2018-08-10T03:28:43.508Z,72.87
2018-08-10T03:31:11.173Z,71.59
2018-08-10T03:33:38.866Z,71.57
2018-08-10T03:36:06.582Z,71.11
2018-08-10T03:38:34.257Z,71.36
2018-08-10T03:41:02.016Z,72.62
2018-08-10T03:43:29.679Z,71.66
2018-08-10T03:45:57.378Z,66.18
2018-08-10T03:48:25.057Z,57.72
2018-08-10T03:50:52.753Z,51.64
2018-08-10T03:53:20.429Z,47.95
2018-08-10T03:55:48.073Z,44.77
2018-08-10T03:58:15.777Z,42.87
2018-08-10T04:00:43.486Z,40.73
2018-08-10T04:03:11.233Z,40.17
2018-08-10T04:05:38.933Z,38.83
2018-08-10T04:08:06.645Z,37.43
2018-08-10T04:10:34.345Z,35.72
2018-08-10T04:13:02.006Z,33.46
2018-08-10T04:15:29.678Z,32.01
2018-08-10T04:17:57.413Z,32.18
2018-08-10T04:20:25.110Z,30.75
2018-08-10T04:22:52.813Z,31.71
2018-08-10T04:25:20.485Z,30.10
2018-08-10T04:27:48.127Z,28.41
2018-08-10T04:30:15.797Z,27.75
2018-08-10T04:32:43.474Z,27.74
2018-08-10T04:35:11.200Z,27.11
2018-08-10T04:37:38.889Z,26.18
2018-08-10T04:40:08.529Z,24.76
2018-08-10T04:42:36.246Z,25.49
2018-08-10T04:45:04.462Z,24.37
2018-08-10T04:47:32.222Z,25.04
2018-08-10T04:49:59.902Z,26.11
2018-08-10T04:52:27.650Z,25.15
2018-08-10T04:54:55.304Z,24.99
2018-08-10T04:57:22.961Z,27.04
2018-08-10T04:59:50.613Z,28.87
2018-08-10T05:02:18.286Z,31.75
2018-08-10T05:04:45.942Z,32.14
2018-08-10T05:07:13.633Z,30.80
2018-08-10T05:09:41.302Z,29.87
2018-08-10T05:12:09.001Z,27.66
2018-08-10T05:14:36.721Z,29.46
2018-08-10T05:17:04.434Z,31.30
2018-08-10T05:19:32.169Z,29.57
2018-08-10T05:21:59.869Z,27.59
2018-08-10T05:24:28.089Z,29.89
2018-08-10T05:26:55.765Z,30.64
2018-08-10T05:29:23.454Z,32.90
2018-08-10T05:31:51.197Z,33.07
2018-08-10T05:34:18.945Z,33.05
2018-08-10T05:36:46.604Z,34.83
2018-08-10T05:39:14.351Z,32.42
2018-08-10T05:41:42.013Z,32.11
2018-08-10T05:44:09.771Z,33.37
2018-08-10T05:46:37.373Z,33.80
2018-08-10T05:49:05.013Z,32.01
2018-08-10T05:51:32.661Z,29.92
2018-08-10T05:54:00.333Z,31.67
2018-08-10T05:56:27.984Z,32.29
2018-08-10T05:58:55.649Z,33.39
2018-08-10T06:01:23.299Z,32.64
2018-08-10T06:03:51.046Z,34.93
2018-08-10T06:06:18.747Z,33.35
2018-08-10T06:08:46.438Z,32.92
2018-08-10T06:11:14.162Z,33.18
2018-08-10T06:13:41.835Z,29.91
2018-08-10T06:16:09.548Z,32.56
2018-08-10T06:18:37.260Z,30.59
2018-08-10T06:21:04.962Z,31.80
2018-08-10T06:23:32.642Z,34.80
2018-08-10T06:26:00.319Z,33.12
2018-08-10T06:28:27.977Z,34.70
2018-08-10T06:30:55.675Z,32.98
2018-08-10T06:33:23.373Z,36.58
2018-08-10T06:35:51.049Z,37.63
2018-08-10T06:38:18.786Z,40.19
2018-08-10T06:40:46.479Z,40.58
2018-08-10T06:43:14.121Z,37.04
2018-08-10T06:45:41.858Z,37.30
2018-08-10T06:48:09.523Z,38.18
2018-08-10T06:50:37.218Z,41.98
2018-08-10T06:53:04.946Z,42.77
2018-08-10T06:55:32.634Z,40.32
2018-08-10T06:58:00.323Z,42.66
2018-08-10T07:00:27.998Z,39.92
2018-08-10T07:02:55.683Z,39.31
2018-08-10T07:05:23.394Z,39.16
2018-08-10T07:07:51.072Z,40.05
2018-08-10T07:10:18.748Z,41.28
2018-08-10T07:12:46.627Z,41.41
2018-08-10T07:15:14.288Z,39.99
2018-08-10T07:17:41.973Z,38.96
2018-08-10T07:20:09.701Z,38.56
2018-08-10T07:22:37.494Z,38.45
2018-08-10T07:25:06.165Z,37.25
2018-08-10T07:27:33.999Z,40.94
2018-08-10T07:30:01.910Z,38.08
2018-08-10T07:32:29.707Z,37.86
2018-08-10T07:34:57.494Z,36.91
2018-08-10T07:37:25.297Z,36.85
2018-08-10T07:39:52.956Z,38.05
2018-08-10T07:42:20.650Z,37.66
2018-08-10T07:44:48.325Z,36.65
2018-08-10T07:47:15.998Z,37.32
2018-08-10T07:49:43.651Z,36.43
2018-08-10T07:52:11.358Z,37.42
2018-08-10T07:54:39.068Z,38.25
2018-08-10T07:57:06.792Z,38.28
2018-08-10T07:59:34.495Z,35.89
2018-08-10T08:02:02.226Z,36.29
2018-08-10T08:04:29.942Z,40.68
2018-08-10T08:06:58.653Z,41.25
2018-08-10T08:09:26.879Z,41.06
2018-08-10T08:11:54.597Z,40.98
2018-08-10T08:14:22.487Z,39.84
2018-08-10T08:16:50.373Z,40.95
2018-08-10T08:19:18.070Z,41.72
2018-08-10T08:21:56.455Z,40.47
2018-08-10T08:24:24.243Z,42.06
2018-08-10T08:26:51.935Z,42.49
2018-08-10T08:29:19.738Z,41.51
2018-08-10T08:31:47.430Z,41.51
2018-08-10T08:34:15.226Z,42.40
2018-08-10T08:36:42.935Z,41.55
2018-08-10T08:39:30.392Z,40.84
2018-08-10T08:41:58.134Z,39.79
2018-08-10T08:44:37.644Z,39.18
2018-08-10T08:47:06.177Z,38.50
2018-08-10T08:49:34.781Z,39.42
2018-08-10T08:52:02.701Z,38.51
2018-08-10T08:55:34.266Z,40.78
2018-08-10T08:58:01.926Z,40.52
2018-08-10T09:00:29.737Z,39.76
2018-08-10T09:02:57.579Z,37.89
2018-08-10T09:05:25.322Z,35.27
2018-08-10T09:07:53.063Z,34.75
2018-08-10T09:10:20.750Z,35.93
2018-08-10T09:12:48.510Z,33.44
2018-08-10T09:15:17.923Z,32.97
2018-08-10T09:17:45.663Z,36.10
2018-08-10T09:20:13.558Z,36.43
2018-08-10T09:22:41.260Z,36.30
2018-08-10T09:25:12.250Z,37.88
2018-08-10T09:27:39.999Z,37.92
2018-08-10T09:30:14.017Z,36.99
2018-08-10T09:32:42.178Z,35.92
2018-08-10T09:35:10.825Z,34.95
2018-08-10T09:37:38.629Z,33.57
2018-08-10T09:40:09.889Z,33.70
2018-08-10T09:42:37.637Z,33.63
2018-08-10T09:45:06.630Z,36.04
2018-08-10T09:47:34.445Z,35.26
2018-08-10T09:50:02.353Z,33.83
2018-08-10T09:52:30.037Z,31.66
2018-08-10T09:55:17.524Z,29.89
2018-08-10T09:57:45.357Z,29.67
2018-08-10T10:00:17.636Z,29.09
2018-08-10T10:02:50.953Z,28.65
2018-08-10T10:05:18.679Z,30.01
2018-08-10T10:07:46.463Z,33.00
2018-08-10T10:10:14.174Z,32.08
2018-08-10T10:12:41.973Z,30.55
2018-08-10T10:15:09.802Z,30.27
2018-08-10T10:17:37.571Z,30.55
2018-08-10T10:20:06.414Z,31.12
2018-08-10T10:22:34.247Z,28.14
2018-08-10T10:25:02.351Z,28.28
2018-08-10T10:27:30.309Z,32.11
2018-08-10T10:29:58.319Z,32.77
2018-08-10T10:32:26.040Z,30.77
2018-08-10T10:34:53.795Z,29.29
2018-08-10T10:37:22.119Z,29.65
2018-08-10T10:39:49.816Z,31.10
2018-08-10T10:42:17.827Z,31.95
2018-08-10T10:44:45.574Z,31.42
2018-08-10T10:47:13.313Z,32.24
2018-08-10T10:49:41.015Z,30.97
2018-08-10T10:52:08.758Z,30.72
2018-08-10T10:54:36.519Z,30.53
2018-08-10T10:57:04.354Z,31.15
2018-08-10T10:59:32.139Z,32.84
2018-08-10T11:01:59.837Z,31.54
2018-08-10T11:04:27.641Z,30.89
2018-08-10T11:06:55.429Z,31.33
2018-08-10T11:09:23.142Z,31.97
2018-08-10T11:11:50.938Z,31.63
2018-08-10T11:14:18.635Z,32.29
2018-08-10T11:16:46.475Z,32.42
2018-08-10T11:19:14.205Z,32.13
2018-08-10T11:21:42.011Z,30.50
2018-08-10T11:24:09.809Z,30.28
2018-08-10T11:26:37.887Z,29.72
2018-08-10T11:29:38.422Z,29.67
2018-08-10T11:32:06.347Z,29.07
2018-08-10T11:34:35.921Z,30.60
2018-08-10T11:37:03.874Z,29.90
2018-08-10T11:39:31.633Z,28.31
2018-08-10T11:41:59.372Z,27.29
2018-08-10T11:44:27.112Z,26.91
2018-08-10T11:46:54.851Z,25.92
2018-08-10T11:49:22.575Z,26.02
2018-08-10T11:51:50.363Z,26.72
2018-08-10T11:54:18.154Z,28.00
2018-08-10T11:56:45.883Z,27.60
2018-08-10T11:59:13.713Z,28.48
2018-08-10T12:01:41.399Z,28.15
2018-08-10T12:04:09.158Z,29.12
2018-08-10T12:06:36.888Z,29.81
2018-08-10T12:09:07.626Z,29.35
2018-08-10T12:11:35.370Z,29.21
2018-08-10T12:14:03.160Z,29.88
2018-08-10T12:16:30.921Z,29.88
2018-08-10T12:18:58.753Z,30.33
2018-08-10T12:21:26.487Z,30.45
2018-08-10T12:23:54.363Z,28.41
2018-08-10T12:26:22.132Z,28.25
2018-08-10T12:28:49.829Z,27.53
2018-08-10T12:31:17.520Z,29.20
2018-08-10T12:33:45.262Z,28.36
2018-08-10T12:36:12.999Z,29.44
2018-08-10T12:38:40.743Z,29.69
2018-08-10T12:41:08.494Z,31.62
2018-08-10T12:43:36.236Z,31.86
2018-08-10T12:46:04.084Z,31.36
2018-08-10T12:48:31.827Z,31.45
2018-08-10T12:50:59.841Z,32.36
2018-08-10T12:53:27.911Z,29.66
2018-08-10T12:55:55.622Z,29.66
2018-08-10T12:58:23.344Z,29.63
2018-08-10T13:00:51.105Z,29.85
2018-08-10T13:03:19.158Z,28.42
2018-08-10T13:05:46.839Z,28.20
2018-08-10T13:08:14.542Z,27.82
2018-08-10T13:10:42.286Z,26.12
2018-08-10T13:13:10.017Z,26.06
2018-08-10T13:15:37.739Z,27.32
2018-08-10T13:18:06.049Z,29.03
2018-08-10T13:20:33.747Z,29.78
2018-08-10T13:23:01.445Z,28.54
2018-08-10T13:25:29.154Z,27.70
2018-08-10T13:27:56.861Z,26.48
2018-08-10T13:30:24.628Z,27.65
2018-08-10T13:32:52.352Z,28.74
2018-08-10T13:35:20.105Z,29.19
2018-08-10T13:37:47.822Z,27.25
2018-08-10T13:40:15.642Z,28.48
2018-08-10T13:42:43.783Z,29.20
2018-08-10T13:45:12.918Z,28.21
2018-08-10T13:47:40.978Z,27.76
2018-08-10T13:50:10.664Z,27.28
2018-08-10T13:52:38.391Z,27.93
2018-08-10T13:55:06.257Z,28.10
2018-08-10T13:57:33.986Z,28.02
2018-08-10T14:00:01.673Z,27.35
2018-08-10T14:02:29.433Z,28.25
2018-08-10T14:04:57.254Z,28.94
2018-08-10T14:07:25.050Z,28.15
2018-08-10T14:09:52.805Z,28.61
2018-08-10T14:12:20.512Z,28.89
2018-08-10T14:14:48.247Z,30.36
2018-08-10T14:17:16.018Z,31.08
2018-08-10T14:19:43.769Z,30.42
2018-08-10T14:22:11.474Z,28.61
2018-08-10T14:24:39.195Z,29.08
2018-08-10T14:27:07.001Z,28.46
2018-08-10T14:29:34.757Z,28.12
2018-08-10T14:32:02.462Z,29.92
2018-08-10T14:34:30.202Z,28.84
2018-08-10T14:36:58.014Z,28.66
2018-08-10T14:39:25.728Z,29.38
2018-08-10T14:41:53.473Z,29.37
2018-08-10T14:44:21.192Z,29.39
2018-08-10T14:46:48.936Z,30.05
2018-08-10T14:49:16.650Z,29.35
2018-08-10T14:51:44.437Z,29.65
2018-08-10T14:54:12.236Z,30.91
2018-08-10T14:56:39.937Z,30.82
2018-08-10T14:59:07.781Z,30.03
2018-08-10T15:01:35.517Z,29.29
2018-08-10T15:04:03.351Z,28.25
2018-08-10T15:06:31.071Z,27.42
2018-08-10T15:08:58.788Z,28.12
2018-08-10T15:11:26.618Z,27.19
2018-08-10T15:13:54.406Z,26.38
2018-08-10T15:16:22.148Z,26.52
2018-08-10T15:18:49.888Z,27.98
2018-08-10T15:21:17.701Z,27.47
2018-08-10T15:23:45.465Z,28.86
2018-08-10T15:26:13.178Z,30.37
2018-08-10T15:28:40.933Z,31.07
2018-08-10T15:31:08.657Z,32.81
2018-08-10T15:33:36.409Z,33.86
2018-08-10T15:36:04.259Z,33.79
2018-08-10T15:38:31.954Z,33.79
2018-08-10T15:40:59.651Z,34.58
2018-08-10T15:43:27.341Z,34.89
2018-08-10T15:45:55.094Z,35.68
2018-08-10T15:48:22.826Z,35.95
2018-08-10T15:50:50.538Z,35.66
2018-08-10T15:53:18.225Z,35.79
2018-08-10T15:55:45.922Z,36.24
2018-08-10T15:58:13.654Z,35.50
2018-08-10T16:00:41.365Z,35.78
2018-08-10T16:03:09.068Z,35.94
2018-08-10T16:05:36.759Z,36.05
2018-08-10T16:08:04.754Z,35.53
2018-08-10T16:10:32.447Z,35.39
2018-08-10T16:13:00.213Z,34.86
2018-08-10T16:15:27.933Z,34.45
2018-08-10T16:17:56.227Z,33.67
2018-08-10T16:20:24.011Z,33.30
2018-08-10T16:22:51.717Z,33.17
2018-08-10T16:25:19.484Z,33.89
2018-08-10T16:27:47.324Z,34.42
2018-08-10T16:30:16.191Z,35.58
2018-08-10T16:32:44.752Z,35.79
2018-08-10T16:35:13.621Z,35.72
2018-08-10T16:37:42.662Z,36.56
2018-08-10T16:40:11.495Z,36.28
2018-08-10T16:42:40.002Z,38.01
2018-08-10T16:45:08.384Z,37.57
2018-08-10T16:47:36.750Z,38.81
2018-08-10T16:50:06.543Z,39.23
2018-08-10T16:52:34.244Z,39.05
2018-08-10T16:55:02.072Z,39.23
2018-08-10T16:57:29.758Z,39.41
2018-08-10T16:59:57.503Z,39.80
2018-08-10T17:02:25.522Z,39.97
2018-08-10T17:04:53.218Z,42.73
2018-08-10T17:07:20.925Z,43.72
2018-08-10T17:09:49.766Z,44.46
2018-08-10T17:12:17.438Z,44.79
2018-08-10T17:14:45.158Z,45.56
2018-08-10T17:17:12.841Z,45.62
2018-08-10T17:19:40.663Z,45.96
2018-08-10T17:22:08.997Z,45.75
2018-08-10T17:24:36.747Z,45.99
2018-08-10T17:27:04.535Z,46.93
2018-08-10T17:29:32.252Z,47.17
2018-08-10T17:31:59.980Z,47.53
2018-08-10T17:34:27.716Z,47.29
2018-08-10T17:36:55.399Z,46.83
2018-08-10T17:39:23.147Z,46.57
2018-08-10T17:41:50.843Z,47.09
2018-08-10T17:44:18.563Z,46.58
2018-08-10T17:46:46.396Z,46.20
2018-08-10T17:49:14.125Z,45.50
2018-08-10T17:51:42.020Z,45.58
2018-08-10T17:54:09.764Z,45.48
2018-08-10T17:56:37.501Z,45.82
2018-08-10T17:59:05.368Z,46.09
2018-08-10T18:01:33.174Z,46.01
2018-08-10T18:04:00.890Z,45.96
2018-08-10T18:06:28.649Z,45.83
2018-08-10T18:08:56.337Z,45.90
2018-08-10T18:11:24.141Z,46.10
2018-08-10T18:13:51.890Z,46.06
2018-08-10T18:16:19.662Z,46.29
2018-08-10T18:18:47.411Z,46.21
2018-08-10T18:21:15.139Z,46.70
2018-08-10T18:23:42.880Z,47.53
2018-08-10T18:26:10.583Z,47.65
2018-08-10T18:28:38.472Z,49.14
2018-08-10T18:31:06.788Z,49.44
2018-08-10T18:33:34.581Z,49.36
2018-08-10T18:36:02.673Z,48.82
2018-08-10T18:38:30.472Z,50.25
2018-08-10T18:40:58.196Z,51.00
2018-08-10T18:43:25.948Z,51.30
2018-08-10T18:45:53.652Z,50.59
2018-08-10T18:48:21.365Z,50.35
2018-08-10T18:50:49.221Z,50.10
2018-08-10T18:53:16.921Z,50.62
2018-08-10T18:55:44.647Z,50.65
2018-08-10T18:58:12.405Z,50.85
2018-08-10T19:00:40.281Z,51.07
2018-08-10T19:03:08.085Z,51.14
2018-08-10T19:05:35.896Z,52.22
2018-08-10T19:08:03.657Z,51.89
2018-08-10T19:10:31.452Z,51.95
2018-08-10T19:12:59.368Z,52.00
2018-08-10T19:15:27.107Z,52.49
2018-08-10T19:17:54.899Z,52.82
2018-08-10T19:20:22.766Z,52.00
2018-08-10T19:22:51.246Z,52.29
2018-08-10T19:25:19.152Z,52.18
2018-08-10T19:27:46.974Z,53.27
2018-08-10T19:30:16.895Z,52.38
2018-08-10T19:32:45.655Z,52.75
2018-08-10T19:35:13.614Z,52.62
2018-08-10T19:37:41.688Z,53.05
2018-08-10T19:40:11.973Z,52.81
2018-08-10T19:42:39.718Z,53.45
2018-08-10T19:45:08.545Z,53.98
2018-08-10T19:47:36.617Z,54.55
2018-08-10T19:50:05.556Z,55.06
2018-08-10T19:52:33.330Z,54.79
2018-08-10T19:55:01.052Z,54.45
2018-08-10T19:57:28.806Z,55.67
2018-08-10T19:59:56.797Z,55.76
2018-08-10T20:02:24.560Z,56.15
2018-08-10T20:04:52.264Z,55.89
2018-08-10T20:07:19.986Z,55.66
2018-08-10T20:09:47.746Z,56.44
2018-08-10T20:12:15.472Z,56.28
2018-08-10T20:14:43.218Z,55.88
2018-08-10T20:17:10.929Z,55.24
2018-08-10T20:19:38.615Z,54.73
2018-08-10T20:22:13.284Z,55.71
2018-08-10T20:24:41.148Z,55.16
2018-08-10T20:27:09.912Z,55.64
2018-08-10T20:29:37.631Z,55.29
2018-08-10T20:32:05.468Z,55.23
2018-08-10T20:34:33.468Z,55.51
2018-08-10T20:37:01.530Z,55.04
2018-08-10T20:39:29.228Z,54.82
2018-08-10T20:41:57.379Z,55.51
2018-08-10T20:44:25.224Z,55.42
2018-08-10T20:46:53.143Z,55.45
2018-08-10T20:49:21.023Z,55.65
2018-08-10T20:51:48.875Z,56.02
2018-08-10T20:54:16.694Z,55.62
2018-08-10T20:56:44.429Z,56.10
2018-08-10T20:59:12.148Z,56.95
2018-08-10T21:01:39.904Z,56.54
2018-08-10T21:04:07.785Z,56.34
2018-08-10T21:06:35.525Z,56.34
2018-08-10T21:09:05.175Z,56.78
2018-08-10T21:11:32.914Z,57.16
2018-08-10T21:14:00.705Z,57.17
2018-08-10T21:16:28.468Z,56.85
2018-08-10T21:18:56.212Z,57.79
2018-08-10T21:21:23.918Z,57.56
2018-08-10T21:23:51.638Z,57.18
2018-08-10T21:26:19.401Z,57.84
2018-08-10T21:28:47.086Z,58.00
2018-08-10T21:31:14.781Z,58.32
2018-08-10T21:33:42.516Z,58.04
2018-08-10T21:36:10.270Z,58.19
2018-08-10T21:38:38.018Z,57.72
2018-08-10T21:41:05.747Z,58.45
2018-08-10T21:43:33.430Z,58.33
2018-08-10T21:46:01.121Z,59.87
2018-08-10T21:48:29.172Z,60.36
2018-08-10T21:50:56.974Z,60.71
2018-08-10T21:53:24.724Z,61.08
2018-08-10T21:55:52.353Z,60.86
2018-08-10T21:58:20.062Z,60.78
2018-08-10T22:00:53.217Z,61.15
2018-08-10T22:03:22.202Z,60.63
2018-08-10T22:05:50.137Z,60.34
2018-08-10T22:08:19.018Z,59.84
2018-08-10T22:10:46.738Z,59.75
2018-08-10T22:13:20.097Z,59.53
2018-08-10T22:15:53.222Z,59.61
2018-08-10T22:18:26.403Z,59.27
2018-08-10T22:20:54.746Z,59.11
2018-08-10T22:23:22.414Z,58.65
2018-08-10T22:25:50.108Z,59.55
2018-08-10T22:28:17.969Z,59.33
2018-08-10T22:30:45.792Z,58.67
2018-08-10T22:33:13.523Z,58.61
2018-08-10T22:35:41.682Z,58.87
2018-08-10T22:38:09.629Z,58.32
2018-08-10T22:40:37.286Z,58.57
2018-08-10T22:43:05.002Z,58.20
2018-08-10T22:45:32.690Z,58.11
2018-08-10T22:48:00.430Z,58.73
2018-08-10T22:50:28.223Z,58.31
2018-08-10T22:52:55.902Z,58.20
2018-08-10T22:55:23.610Z,57.80
2018-08-10T22:57:51.363Z,57.89
2018-08-10T23:00:19.421Z,58.05
2018-08-10T23:02:47.137Z,57.45
2018-08-10T23:05:14.884Z,57.79
2018-08-10T23:07:42.545Z,57.76
2018-08-10T23:10:11.534Z,58.40
2018-08-10T23:12:39.530Z,57.76
2018-08-10T23:15:07.837Z,58.56
2018-08-10T23:17:35.669Z,59.13
2018-08-10T23:20:04.348Z,58.98
2018-08-10T23:22:32.018Z,59.22
2018-08-10T23:24:59.702Z,59.04
2018-08-10T23:27:27.441Z,59.48
2018-08-10T23:29:55.161Z,59.63
2018-08-10T23:32:22.935Z,60.09
2018-08-10T23:34:50.593Z,60.14
2018-08-10T23:37:18.302Z,60.32
2018-08-10T23:39:45.996Z,60.80
2018-08-10T23:42:13.670Z,61.48
2018-08-10T23:44:41.742Z,61.78
2018-08-10T23:47:09.449Z,62.25
2018-08-10T23:49:37.189Z,62.56
2018-08-10T23:52:05.022Z,63.66
2018-08-10T23:54:32.733Z,63.73
2018-08-10T23:57:00.460Z,63.35
2018-08-10T23:59:28.165Z,63.55
